Time;durP1;ratioP1;P1;durP2;ratioP2;P2;SDS_P1;SDS_P2;PMS_P1;PMS_P2;Temp;Humidity;BMP_temperature;BMP_pressure;BME280_temperature;BME280_humidity;BME280_pressure;Samples;Min_cycle;Max_cycle;Signal;HPM_P1;HPM_P2
2022/04/22 00:01:21;;;;;;;17.40;11.90;;;8.90;99.90;;;;;;5053494;28;20201;-75
2022/04/22 00:03:47;;;;;;;19.23;12.90;;;9.00;99.90;;;;;;5036412;28;20283;-75
2022/04/22 00:06:13;;;;;;;18.53;12.30;;;8.90;99.90;;;;;;5020010;28;20181;-75
2022/04/22 00:08:38;;;;;;;20.70;13.20;;;8.90;99.90;;;;;;5053370;28;20184;-75
2022/04/22 00:13:49;;;;;;;18.97;12.20;;;8.80;99.90;;;;;;5053513;28;20173;-75
2022/04/22 00:16:17;;;;;;;19.90;13.40;;;8.80;99.90;;;;;;5036762;28;20203;-75
2022/04/22 00:18:43;;;;;;;19.93;12.77;;;8.80;99.90;;;;;;5036380;28;20204;-75
2022/04/22 00:21:09;;;;;;;20.43;13.60;;;8.90;99.90;;;;;;5036583;28;20265;-75
2022/04/22 00:23:35;;;;;;;19.87;13.13;;;8.80;99.90;;;;;;5036118;28;20174;-75
2022/04/22 00:26:01;;;;;;;22.57;12.93;;;8.90;99.90;;;;;;5036315;28;20288;-75
2022/04/22 00:28:27;;;;;;;20.83;12.57;;;8.90;99.90;;;;;;5036613;28;20177;-75
2022/04/22 00:30:52;;;;;;;22.10;13.37;;;8.90;99.90;;;;;;5036357;28;20322;-75
2022/04/22 00:33:18;;;;;;;19.53;12.97;;;9.00;99.90;;;;;;5019399;28;20243;-75
2022/04/22 00:35:44;;;;;;;20.33;13.17;;;9.00;99.90;;;;;;5036339;28;20623;-75
2022/04/22 00:38:10;;;;;;;21.90;13.40;;;9.00;99.90;;;;;;5036371;28;20187;-75
2022/04/22 00:40:36;;;;;;;20.53;13.43;;;9.10;99.90;;;;;;5035938;28;20204;-75
2022/04/22 00:43:24;;;;;;;19.77;12.67;;;9.10;99.90;;;;;;5036052;28;20183;-75
2022/04/22 00:45:51;;;;;;;22.43;14.87;;;9.00;99.90;;;;;;5019359;28;20297;-75
2022/04/22 00:48:18;;;;;;;21.10;14.27;;;9.00;99.90;;;;;;5035845;28;20190;-75
2022/04/22 00:50:45;;;;;;;20.33;13.77;;;8.90;99.90;;;;;;5035897;28;20194;-75
2022/04/22 00:53:12;;;;;;;20.83;13.73;;;8.90;99.90;;;;;;5035455;28;20214;-75
2022/04/22 00:55:40;;;;;;;19.77;13.67;;;8.80;99.90;;;;;;5035779;28;20178;-75
2022/04/22 00:58:07;;;;;;;20.60;13.37;;;8.90;99.90;;;;;;5035660;28;20318;-75
2022/04/22 01:00:33;;;;;;;20.07;13.80;;;8.90;99.90;;;;;;5059429;22;20220;-75
2022/04/22 01:02:59;;;;;;;19.67;13.17;;;8.90;99.90;;;;;;5035577;28;20204;-75
2022/04/22 01:10:57;;;;;;;20.17;13.83;;;8.90;99.90;;;;;;5038417;28;20622;-75
2022/04/22 01:13:24;;;;;;;19.73;13.53;;;8.90;99.90;;;;;;5035282;28;20272;-75
2022/04/22 01:15:50;;;;;;;18.07;12.23;;;9.00;99.90;;;;;;5035625;28;20182;-75
2022/04/22 01:18:17;;;;;;;18.33;12.97;;;9.00;99.90;;;;;;5035009;28;20196;-75
2022/04/22 01:20:42;;;;;;;18.33;12.93;;;8.90;99.90;;;;;;5035442;28;20225;-75
2022/04/22 01:23:08;;;;;;;18.10;13.30;;;9.00;99.90;;;;;;5035077;28;20185;-75
2022/04/22 01:25:34;;;;;;;19.23;13.00;;;8.90;99.90;;;;;;5018896;28;20209;-75
2022/04/22 01:28:01;;;;;;;18.40;13.23;;;9.00;99.90;;;;;;5035466;28;20232;-75
2022/04/22 01:30:26;;;;;;;17.43;12.73;;;8.90;99.90;;;;;;5035022;28;20244;-75
2022/04/22 01:32:57;;;;;;;18.57;13.13;;;9.00;99.90;;;;;;5052746;28;20170;-75
2022/04/22 01:35:24;;;;;;;17.30;12.70;;;9.00;99.90;;;;;;5035194;28;20276;-75
2022/04/22 01:37:50;;;;;;;19.17;13.53;;;9.00;99.90;;;;;;5035080;28;20240;-75
2022/04/22 01:40:16;;;;;;;18.63;12.87;;;8.90;99.90;;;;;;5051499;28;20605;-75
2022/04/22 01:42:42;;;;;;;18.53;12.07;;;8.90;99.90;;;;;;5034762;28;20218;-75
2022/04/22 01:45:09;;;;;;;17.20;12.73;;;8.90;99.90;;;;;;5018720;28;20220;-75
2022/04/22 01:47:35;;;;;;;15.90;12.03;;;8.80;99.90;;;;;;5034769;28;20559;-75
2022/04/22 01:50:02;;;;;;;17.80;12.27;;;8.70;99.90;;;;;;5052571;28;20196;-75
2022/04/22 01:52:28;;;;;;;17.10;12.40;;;8.50;99.90;;;;;;5051651;28;20521;-75
2022/04/22 01:54:55;;;;;;;19.63;12.40;;;8.50;99.90;;;;;;5034991;28;20228;-75
2022/04/22 01:57:21;;;;;;;17.30;11.83;;;8.40;99.90;;;;;;5052793;28;20263;-75
2022/04/22 01:59:48;;;;;;;18.00;12.50;;;8.40;99.90;;;;;;5034563;28;20297;-75
2022/04/22 02:02:14;;;;;;;18.47;12.40;;;8.20;99.90;;;;;;5052481;28;20158;-75
2022/04/22 02:04:40;;;;;;;17.27;12.93;;;8.10;99.90;;;;;;5034606;28;20212;-75
2022/04/22 02:07:06;;;;;;;17.13;11.97;;;8.00;99.90;;;;;;5034598;28;20204;-75
2022/04/22 02:09:31;;;;;;;17.37;11.93;;;8.00;99.90;;;;;;5018403;28;20188;-75
2022/04/22 02:11:57;;;;;;;17.73;12.30;;;8.00;99.90;;;;;;5034482;28;20254;-75
2022/04/22 02:14:23;;;;;;;17.27;12.27;;;8.10;99.90;;;;;;5018071;28;20236;-75
2022/04/22 02:16:49;;;;;;;18.70;12.57;;;8.10;99.90;;;;;;5018450;28;20192;-75
2022/04/22 02:19:14;;;;;;;20.33;12.77;;;8.10;99.90;;;;;;5034593;28;20184;-75
2022/04/22 02:21:41;;;;;;;17.97;12.37;;;8.10;99.90;;;;;;5034565;28;20600;-75
2022/04/22 02:24:07;;;;;;;18.50;12.80;;;8.10;99.90;;;;;;5050941;28;20200;-75
2022/04/22 02:28:31;;;;;;;17.67;12.93;;;8.10;99.90;;;;;;5051453;28;20178;-75
2022/04/22 02:29:19;;;;;;;20.47;13.80;;;8.00;99.90;;;;;;5051169;28;20271;-75
2022/04/22 02:31:46;;;;;;;18.97;13.50;;;8.00;99.90;;;;;;5037004;28;20671;-75
2022/04/22 02:34:11;;;;;;;21.20;13.37;;;7.90;99.90;;;;;;5056153;28;20180;-75
2022/04/22 02:36:37;;;;;;;19.30;12.97;;;7.80;99.90;;;;;;5021738;28;20603;-75
2022/04/22 02:39:03;;;;;;;18.67;13.17;;;7.80;99.90;;;;;;5038380;28;20187;-75
2022/04/22 02:46:57;;;;;;;19.00;12.57;;;7.70;99.90;;;;;;5056339;28;20172;-75
2022/04/22 02:49:22;;;;;;;19.10;12.93;;;7.50;99.90;;;;;;5038391;28;20667;-75
2022/04/22 02:51:48;;;;;;;18.37;12.50;;;7.40;99.90;;;;;;5021374;28;20275;-75
2022/04/22 02:54:13;;;;;;;17.87;12.30;;;7.50;99.90;;;;;;5038173;28;20193;-75
2022/04/22 02:56:39;;;;;;;16.83;12.23;;;7.40;99.90;;;;;;5021849;28;20239;-75
2022/04/22 02:59:05;;;;;;;18.73;12.17;;;7.50;99.90;;;;;;5037947;28;20220;-75
2022/04/22 03:01:33;;;;;;;18.23;11.63;;;7.50;99.90;;;;;;5055777;28;20246;-75
2022/04/22 03:03:59;;;;;;;17.77;12.47;;;7.60;99.90;;;;;;5037779;28;20275;-75
2022/04/22 03:06:26;;;;;;;17.13;12.30;;;7.70;99.90;;;;;;5037704;28;20274;-75
2022/04/22 03:08:52;;;;;;;14.93;11.27;;;7.70;99.90;;;;;;5038009;28;20237;-75
2022/04/22 03:11:21;;;;;;;15.90;11.20;;;7.70;99.90;;;;;;5037917;28;20216;-75
2022/04/22 03:13:49;;;;;;;17.80;11.50;;;7.80;99.90;;;;;;5037773;28;20181;-75
2022/04/22 03:16:19;;;;;;;14.53;11.47;;;7.80;99.90;;;;;;5021350;28;20239;-75
2022/04/22 03:18:44;;;;;;;14.90;11.00;;;7.70;99.90;;;;;;5037456;28;20196;-75
2022/04/22 03:21:10;;;;;;;16.13;11.60;;;7.80;99.90;;;;;;5054246;28;20203;-75
2022/04/22 03:23:36;;;;;;;15.60;11.33;;;7.70;99.90;;;;;;5020816;28;20536;-75
2022/04/22 03:26:01;;;;;;;16.43;11.87;;;7.70;99.90;;;;;;5020774;28;20238;-75
2022/04/22 03:28:27;;;;;;;14.80;10.93;;;7.70;99.90;;;;;;5021220;28;20550;-75
2022/04/22 03:30:52;;;;;;;16.03;11.10;;;7.60;99.90;;;;;;5020703;28;20283;-75
2022/04/22 03:33:19;;;;;;;17.57;11.60;;;7.60;99.90;;;;;;5037437;28;20179;-75
2022/04/22 03:35:50;;;;;;;15.17;10.87;;;7.60;99.90;;;;;;5055106;28;20173;-75
2022/04/22 03:38:19;;;;;;;16.77;11.10;;;7.50;99.90;;;;;;5055049;28;20237;-75
2022/04/22 03:40:46;;;;;;;16.63;11.07;;;7.40;99.90;;;;;;5054934;28;20212;-75
2022/04/22 03:43:11;;;;;;;15.60;10.80;;;7.30;99.90;;;;;;5036354;28;20181;-75
2022/04/22 03:45:37;;;;;;;15.30;10.80;;;7.20;99.90;;;;;;5020554;28;20201;-75
2022/04/22 03:48:06;;;;;;;14.93;10.57;;;7.20;99.90;;;;;;5020754;28;20182;-75
2022/04/22 03:50:31;;;;;;;15.07;10.47;;;7.30;99.90;;;;;;5037058;28;20216;-75
2022/04/22 03:52:57;;;;;;;13.43;10.40;;;7.20;99.90;;;;;;5036997;28;20181;-75
2022/04/22 03:55:23;;;;;;;12.87;10.53;;;7.20;99.90;;;;;;5037107;28;20238;-75
2022/04/22 04:00:33;;;;;;;13.07;9.73;;;7.20;99.90;;;;;;5039796;28;20226;-75
2022/04/22 04:03:01;;;;;;;12.70;9.33;;;7.20;99.90;;;;;;5020146;28;20181;-75
2022/04/22 04:05:27;;;;;;;13.43;9.80;;;7.20;99.90;;;;;;5036937;28;20197;-75
2022/04/22 04:07:53;;;;;;;13.00;10.03;;;7.20;99.90;;;;;;5036574;28;20173;-75
2022/04/22 04:15:59;;;;;;;13.20;9.70;;;7.20;99.90;;;;;;5054789;28;20172;-75
2022/04/22 04:18:26;;;;;;;13.07;9.57;;;7.20;99.90;;;;;;5006911;28;20170;-75
2022/04/22 04:23:37;;;;;;;12.63;9.43;;;7.10;99.90;;;;;;5039353;28;20176;-75
2022/04/22 04:29:25;;;;;;;13.40;9.30;;;7.10;99.90;;;;;;5054222;28;20204;-75
2022/04/22 04:31:51;;;;;;;11.57;8.93;;;7.10;99.90;;;;;;5036213;28;20662;-75
2022/04/22 04:34:17;;;;;;;12.47;9.17;;;7.10;99.90;;;;;;5003571;28;20200;-75
2022/04/22 04:36:43;;;;;;;13.03;9.47;;;7.00;99.90;;;;;;5003803;28;20641;-75
2022/04/22 04:39:08;;;;;;;13.00;9.30;;;7.00;99.90;;;;;;5003286;28;20179;-75
2022/04/22 04:41:34;;;;;;;11.07;8.90;;;7.00;99.90;;;;;;5003085;28;20218;-76
2022/04/22 04:44:00;;;;;;;12.57;9.23;;;7.10;99.90;;;;;;5035887;28;20180;-76
2022/04/22 04:46:26;;;;;;;11.20;8.67;;;7.10;99.90;;;;;;5019803;28;20278;-75
2022/04/22 04:48:52;;;;;;;12.67;9.20;;;7.10;99.90;;;;;;5003300;28;20627;-75
2022/04/22 04:51:17;;;;;;;11.13;8.30;;;7.10;99.90;;;;;;5003318;28;20272;-76
2022/04/22 04:53:43;;;;;;;11.77;8.93;;;7.10;99.90;;;;;;5002345;28;20172;-76
2022/04/22 04:56:08;;;;;;;12.07;8.77;;;7.10;99.90;;;;;;5035837;28;20179;-76
2022/04/22 04:58:34;;;;;;;11.57;8.33;;;7.20;99.90;;;;;;5019362;28;20209;-76
2022/04/22 05:01:00;;;;;;;12.30;9.17;;;7.20;99.90;;;;;;5002940;28;20269;-76
2022/04/22 05:03:25;;;;;;;12.33;8.47;;;7.20;99.90;;;;;;5002556;28;20270;-77
2022/04/22 05:05:51;;;;;;;10.87;8.03;;;7.20;99.90;;;;;;5002945;28;20565;-76
2022/04/22 05:08:17;;;;;;;12.00;8.80;;;7.30;99.90;;;;;;5053391;28;20169;-76
2022/04/22 05:10:42;;;;;;;11.07;8.00;;;7.20;99.90;;;;;;5035736;28;20247;-78
2022/04/22 05:13:08;;;;;;;12.77;8.43;;;7.30;99.90;;;;;;5035637;28;20195;-76
2022/04/22 05:15:35;;;;;;;10.20;7.73;;;7.40;99.90;;;;;;5002917;28;20677;-76
2022/04/22 05:18:02;;;;;;;10.27;8.13;;;7.40;99.90;;;;;;5002793;28;20179;-76
2022/04/22 05:20:28;;;;;;;12.63;8.60;;;7.40;99.90;;;;;;5018872;28;20201;-75
2022/04/22 05:22:55;;;;;;;12.43;8.57;;;7.50;99.90;;;;;;5035412;28;20170;-75
2022/04/22 05:25:21;;;;;;;10.57;7.70;;;7.60;99.90;;;;;;5035499;28;20202;-75
2022/04/22 05:27:47;;;;;;;11.23;8.00;;;7.60;99.90;;;;;;5019094;28;20571;-76
2022/04/22 05:32:58;;;;;;;12.43;7.97;;;7.70;99.90;;;;;;5053099;28;20166;-76
2022/04/22 05:35:28;;;;;;;12.23;8.50;;;7.70;99.90;;;;;;5018674;28;20183;-76
2022/04/22 05:37:59;;;;;;;11.77;8.40;;;7.80;99.90;;;;;;5019301;28;20208;-76
2022/04/22 05:40:30;;;;;;;10.87;8.60;;;7.90;99.90;;;;;;5034839;28;20201;-76
2022/04/22 05:42:56;;;;;;;11.60;8.40;;;8.00;99.90;;;;;;5003015;28;20172;-76
2022/04/22 05:45:23;;;;;;;12.80;9.03;;;8.00;99.90;;;;;;5034708;28;20196;-76
2022/04/22 05:47:52;;;;;;;11.47;8.50;;;8.10;99.90;;;;;;5034795;28;20266;-75
2022/04/22 05:50:19;;;;;;;13.13;8.83;;;8.20;99.90;;;;;;5052942;28;20193;-75
2022/04/22 05:52:45;;;;;;;12.77;8.53;;;8.20;99.90;;;;;;5018416;28;20229;-75
2022/04/22 05:55:16;;;;;;;12.07;9.00;;;8.30;99.90;;;;;;5018287;28;20188;-76
2022/04/22 05:57:44;;;;;;;11.40;8.03;;;8.40;99.90;;;;;;5035091;28;20164;-77
2022/04/22 06:00:12;;;;;;;12.63;9.37;;;8.50;99.90;;;;;;5018492;28;20460;-75
2022/04/22 06:02:39;;;;;;;11.07;8.27;;;8.60;99.90;;;;;;5034792;28;20519;-75
2022/04/22 06:05:05;;;;;;;11.43;8.30;;;8.70;99.90;;;;;;5034211;28;20196;-75
2022/04/22 06:07:31;;;;;;;11.00;8.43;;;8.90;99.90;;;;;;5018114;28;20175;-75
2022/04/22 06:12:41;;;;;;;11.57;8.23;;;9.00;99.90;;;;;;5037494;28;20168;-76
2022/04/22 06:15:07;;;;;;;11.00;8.47;;;9.00;99.90;;;;;;5034852;28;20226;-76
2022/04/22 06:17:33;;;;;;;11.03;8.27;;;9.00;99.90;;;;;;5034429;28;20556;-76
2022/04/22 06:19:59;;;;;;;10.97;7.90;;;8.90;99.90;;;;;;5018072;28;20193;-75
2022/04/22 06:22:26;;;;;;;12.50;9.03;;;9.00;99.90;;;;;;5018138;28;20267;-75
2022/04/22 06:24:52;;;;;;;12.33;8.77;;;9.00;99.90;;;;;;5034367;28;20197;-77
2022/04/22 06:27:29;;;;;;;9.43;6.90;;;9.00;99.90;;;;;;5034587;28;20177;-77
2022/04/22 06:29:56;;;;;;;10.83;7.83;;;9.10;99.90;;;;;;5017790;28;20226;-76
2022/04/22 06:32:27;;;;;;;12.63;8.57;;;9.20;99.90;;;;;;5034619;28;20283;-77
2022/04/22 06:34:53;;;;;;;10.77;8.00;;;9.20;99.90;;;;;;5002369;28;20632;-77
2022/04/22 06:37:19;;;;;;;11.00;8.00;;;9.30;99.90;;;;;;5052427;28;20231;-76
2022/04/22 06:47:59;;;;;;;10.33;8.27;;;9.60;99.90;;;;;;5052432;28;20269;-76
2022/04/22 06:50:25;;;;;;;10.83;8.50;;;9.60;99.90;;;;;;5001770;28;20779;-76
2022/04/22 06:52:50;;;;;;;12.60;8.50;;;9.60;99.90;;;;;;5017989;28;20295;-76
2022/04/22 06:55:20;;;;;;;12.07;9.00;;;9.70;99.90;;;;;;5017755;28;20185;-76
2022/04/22 06:57:51;;;;;;;12.83;8.37;;;9.80;99.90;;;;;;5018407;28;20175;-76
2022/04/22 07:00:20;;;;;;;11.57;8.53;;;9.90;99.90;;;;;;5058258;22;20222;-75
2022/04/22 07:02:46;;;;;;;11.87;8.80;;;10.00;99.90;;;;;;5017747;28;20185;-75
2022/04/22 07:05:13;;;;;;;11.47;8.57;;;10.10;99.90;;;;;;5034307;28;20237;-76
2022/04/22 07:07:39;;;;;;;13.07;9.17;;;10.20;99.90;;;;;;5018072;28;20201;-75
2022/04/22 07:10:05;;;;;;;11.07;7.97;;;10.30;99.90;;;;;;5017987;28;20175;-75
2022/04/22 07:12:32;;;;;;;10.83;7.77;;;10.40;99.90;;;;;;5018103;28;20180;-75
2022/04/22 07:15:06;;;;;;;10.20;7.93;;;10.50;99.90;;;;;;5034053;28;20178;-75
2022/04/22 07:17:36;;;;;;;11.40;8.07;;;10.60;99.90;;;;;;5020378;28;20190;-75
2022/04/22 07:20:06;;;;;;;11.67;8.67;;;10.70;99.90;;;;;;5037537;28;20184;-75
2022/04/22 07:22:32;;;;;;;10.47;8.13;;;10.70;99.90;;;;;;5037656;28;20228;-75
2022/04/22 07:24:58;;;;;;;11.03;7.93;;;10.70;99.90;;;;;;5021110;28;20236;-75
2022/04/22 07:27:28;;;;;;;11.73;8.57;;;10.90;99.90;;;;;;5004553;28;20205;-75
2022/04/22 07:29:55;;;;;;;10.63;7.87;;;10.90;99.90;;;;;;5020932;28;20185;-75
2022/04/22 07:32:21;;;;;;;12.30;9.10;;;11.10;99.90;;;;;;5004574;28;20265;-75
2022/04/22 07:34:47;;;;;;;10.70;8.47;;;11.20;99.90;;;;;;5020753;28;20248;-75
2022/04/22 07:37:13;;;;;;;11.87;9.17;;;11.20;99.90;;;;;;5020863;28;20191;-75
2022/04/22 07:39:39;;;;;;;12.23;9.23;;;11.30;99.90;;;;;;5004178;28;20209;-75
2022/04/22 07:42:07;;;;;;;11.07;8.87;;;11.30;99.90;;;;;;5003960;28;20582;-76
2022/04/22 07:47:19;;;;;;;12.03;9.00;;;11.50;99.90;;;;;;5054719;28;20204;-76
2022/04/22 07:49:45;;;;;;;11.80;9.33;;;11.50;99.90;;;;;;5036667;28;20172;-75
2022/04/22 07:52:10;;;;;;;12.40;8.73;;;11.60;99.90;;;;;;5003867;28;20203;-75
2022/04/22 07:54:36;;;;;;;13.37;9.80;;;11.70;99.90;;;;;;5020215;28;20205;-76
2022/04/22 07:57:02;;;;;;;12.63;9.47;;;11.80;99.90;;;;;;5003760;28;20231;-75
2022/04/22 07:59:28;;;;;;;12.87;8.90;;;12.00;99.90;;;;;;5003899;28;20191;-76
2022/04/22 08:01:54;;;;;;;12.90;9.13;;;12.10;99.90;;;;;;5019946;28;20213;-75
2022/04/22 08:04:19;;;;;;;12.27;8.90;;;12.10;99.90;;;;;;5003476;28;20655;-75
2022/04/22 08:06:45;;;;;;;11.47;9.10;;;12.30;99.90;;;;;;5019775;28;20192;-75
2022/04/22 08:09:12;;;;;;;10.33;8.53;;;12.30;99.90;;;;;;5003351;28;20180;-75
2022/04/22 08:11:37;;;;;;;11.63;8.43;;;12.40;99.90;;;;;;5020007;28;20339;-76
2022/04/22 08:14:03;;;;;;;11.23;8.93;;;12.60;99.90;;;;;;5019538;28;20268;-75
2022/04/22 08:16:29;;;;;;;11.93;9.47;;;12.70;99.90;;;;;;5019582;28;20174;-76
2022/04/22 08:18:54;;;;;;;11.27;8.20;;;12.80;99.90;;;;;;5019564;28;20185;-75
2022/04/22 08:21:20;;;;;;;10.53;7.90;;;12.90;99.90;;;;;;5003179;28;20288;-75
2022/04/22 08:23:46;;;;;;;9.50;7.67;;;13.00;99.90;;;;;;5019429;28;20173;-76
2022/04/22 08:26:13;;;;;;;9.97;8.23;;;13.20;99.90;;;;;;5019652;28;20214;-75
2022/04/22 08:28:39;;;;;;;10.47;8.10;;;13.30;99.90;;;;;;5035994;28;20208;-75
2022/04/22 08:31:04;;;;;;;9.43;7.90;;;13.30;99.90;;;;;;5019467;28;20646;-76
2022/04/22 08:33:30;;;;;;;10.73;8.10;;;13.40;99.90;;;;;;5003012;28;20174;-76
2022/04/22 08:35:57;;;;;;;8.63;7.57;;;13.40;99.90;;;;;;5019155;28;20174;-75
2022/04/22 08:38:23;;;;;;;9.07;7.33;;;13.50;99.90;;;;;;5003150;28;20174;-75
2022/04/22 08:40:49;;;;;;;9.87;7.73;;;13.70;99.90;;;;;;5002792;28;20285;-75
2022/04/22 08:43:17;;;;;;;10.00;8.10;;;13.80;99.90;;;;;;5035547;28;20184;-76
2022/04/22 08:45:43;;;;;;;10.77;8.83;;;13.70;99.90;;;;;;5019117;28;20209;-76
2022/04/22 08:50:58;;;;;;;11.97;8.63;;;13.80;99.90;;;;;;5038399;28;20208;-75
2022/04/22 08:53:27;;;;;;;11.27;8.43;;;14.00;99.90;;;;;;5053135;28;20203;-76
2022/04/22 08:55:56;;;;;;;10.87;8.67;;;14.30;99.90;;;;;;5035595;28;20179;-76
2022/04/22 08:58:26;;;;;;;9.87;7.73;;;14.30;99.90;;;;;;5036161;28;20202;-75
2022/04/22 09:00:54;;;;;;;10.70;8.17;;;14.40;99.90;;;;;;5002835;28;20213;-76
2022/04/22 09:03:20;;;;;;;12.60;9.20;;;14.50;99.90;;;;;;5053019;28;20173;-76
2022/04/22 09:05:46;;;;;;;11.37;8.67;;;14.40;99.90;;;;;;5053216;28;20202;-76
2022/04/22 09:08:12;;;;;;;11.37;9.17;;;14.50;99.90;;;;;;5035208;28;20173;-76
2022/04/22 09:10:40;;;;;;;12.90;9.60;;;14.70;99.90;;;;;;5018764;28;20201;-75
2022/04/22 09:13:11;;;;;;;12.10;8.83;;;14.80;99.90;;;;;;5018788;28;20555;-76
2022/04/22 09:15:40;;;;;;;10.10;8.60;;;15.00;99.90;;;;;;5052814;28;20170;-76
2022/04/22 09:18:11;;;;;;;11.57;9.67;;;15.00;99.90;;;;;;5002952;28;20195;-76
2022/04/22 09:20:37;;;;;;;10.90;9.00;;;15.20;99.90;;;;;;5018647;28;20309;-75
2022/04/22 09:23:23;;;;;;;11.23;9.20;;;15.10;99.90;;;;;;5001926;28;20247;-76
2022/04/22 09:25:48;;;;;;;11.17;9.30;;;15.40;99.90;;;;;;5034834;28;20748;-76
2022/04/22 09:28:14;;;;;;;11.50;9.13;;;15.50;99.90;;;;;;5035041;28;20173;-76
2022/04/22 09:30:43;;;;;;;11.50;9.27;;;15.70;99.90;;;;;;5001803;28;20629;-76
2022/04/22 09:33:09;;;;;;;10.63;8.20;;;15.70;99.90;;;;;;5018069;28;20177;-76
2022/04/22 09:42:38;;;;;;;10.00;8.80;;;15.60;99.90;;;;;;5052397;28;20173;-76
2022/04/22 09:43:51;;;;;;;9.73;8.07;;;16.20;99.90;;;;;;5037430;28;20192;-76
2022/04/22 09:46:30;;;;;;;11.60;8.40;;;16.20;99.90;;;;;;5017939;28;20205;-75
2022/04/22 09:48:56;;;;;;;9.33;8.10;;;16.50;99.90;;;;;;5052755;28;20169;-76
2022/04/22 09:51:24;;;;;;;8.63;7.73;;;16.80;99.90;;;;;;5052062;28;20181;-76
2022/04/22 09:54:03;;;;;;;8.67;7.77;;;16.60;99.90;;;;;;5034556;28;20165;-76
2022/04/22 09:56:31;;;;;;;8.13;7.13;;;16.70;99.90;;;;;;5052123;28;20252;-76
2022/04/22 09:58:56;;;;;;;8.40;7.53;;;16.60;99.90;;;;;;5052068;28;20230;-76
2022/04/22 10:01:24;;;;;;;8.23;7.37;;;16.80;99.90;;;;;;5018257;28;20214;-76
2022/04/22 10:03:50;;;;;;;8.97;7.80;;;17.00;99.90;;;;;;5035440;28;20174;-76
2022/04/22 10:06:18;;;;;;;10.30;7.23;;;16.80;99.90;;;;;;5018715;28;20200;-76
2022/04/22 10:08:46;;;;;;;8.53;7.63;;;16.30;99.90;;;;;;5018641;28;20181;-75
2022/04/22 10:11:15;;;;;;;8.30;7.33;;;15.90;99.90;;;;;;5034825;28;20201;-75
2022/04/22 10:13:45;;;;;;;8.07;6.47;;;16.10;99.90;;;;;;5052341;28;20166;-75
2022/04/22 10:16:11;;;;;;;7.57;6.77;;;16.40;99.90;;;;;;5018264;28;20239;-75
2022/04/22 10:18:42;;;;;;;7.30;6.57;;;16.60;99.90;;;;;;5018332;28;20177;-75
2022/04/22 10:21:08;;;;;;;7.57;6.60;;;16.70;99.90;;;;;;5017971;28;20208;-75
2022/04/22 10:23:35;;;;;;;6.40;5.80;;;16.90;99.90;;;;;;5034521;28;20177;-76
2022/04/22 10:26:05;;;;;;;7.77;6.97;;;17.60;99.90;;;;;;5034376;28;20672;-76
2022/04/22 10:28:31;;;;;;;7.17;5.97;;;17.40;99.90;;;;;;5052535;28;20233;-75
2022/04/22 10:31:01;;;;;;;7.40;6.43;;;16.90;99.90;;;;;;5018109;28;20200;-75
2022/04/22 10:33:37;;;;;;;6.90;6.20;;;16.50;99.90;;;;;;5002178;28;20177;-74
2022/04/22 10:36:05;;;;;;;7.53;5.77;;;16.60;99.90;;;;;;5034326;28;20168;-75
2022/04/22 10:38:38;;;;;;;7.20;5.93;;;16.90;99.90;;;;;;5034276;28;20181;-75
2022/04/22 10:41:12;;;;;;;7.30;6.00;;;17.00;99.90;;;;;;5034310;28;20201;-75
2022/04/22 10:43:39;;;;;;;7.10;6.40;;;16.60;99.90;;;;;;5034534;28;20166;-75
2022/04/22 10:49:13;;;;;;;5.97;5.43;;;16.60;99.90;;;;;;5052813;28;20160;-79
2022/04/22 10:52:11;;;;;;;5.67;5.17;;;16.70;99.90;;;;;;5018584;28;20201;-75
2022/04/22 10:54:52;;;;;;;6.83;5.90;;;17.20;99.90;;;;;;5022954;28;20181;-75
2022/04/22 10:57:23;;;;;;;5.87;5.27;;;17.60;99.90;;;;;;5038387;28;20264;-77
2022/04/22 11:00:07;;;;;;;6.60;5.90;;;18.00;99.90;;;;;;5021889;28;20177;-75
2022/04/22 11:02:35;;;;;;;6.43;5.77;;;18.70;98.90;;;;;;5037888;28;20182;-75
2022/04/22 11:05:19;;;;;;;6.30;5.70;;;18.70;97.10;;;;;;5037767;28;20289;-75
2022/04/22 11:07:50;;;;;;;6.90;6.13;;;18.60;98.40;;;;;;5038029;28;20212;-74
2022/04/22 11:10:29;;;;;;;6.53;5.17;;;18.70;97.10;;;;;;5037686;28;20194;-75
2022/04/22 11:12:58;;;;;;;6.07;5.47;;;18.80;98.30;;;;;;5021817;28;20173;-74
2022/04/22 11:15:42;;;;;;;7.13;5.83;;;19.20;96.20;;;;;;5037585;28;20216;-74
2022/04/22 11:18:15;;;;;;;7.10;6.40;;;19.50;97.20;;;;;;5037641;28;20170;-74
2022/04/22 11:20:45;;;;;;;7.30;6.43;;;19.70;96.30;;;;;;5005580;28;20205;-74
2022/04/22 11:23:15;;;;;;;7.03;6.33;;;19.70;95.20;;;;;;5037278;28;20169;-74
2022/04/22 11:25:42;;;;;;;8.20;7.30;;;19.50;94.80;;;;;;5020986;28;20208;-74
2022/04/22 11:28:09;;;;;;;8.50;7.20;;;19.20;96.10;;;;;;5037712;28;20174;-75
2022/04/22 11:30:35;;;;;;;7.53;6.67;;;19.30;97.40;;;;;;5021051;28;20189;-74
2022/04/22 11:33:24;;;;;;;7.73;6.97;;;19.50;97.20;;;;;;5037368;28;20285;-74
2022/04/22 11:35:57;;;;;;;7.47;6.70;;;19.30;95.60;;;;;;5021438;28;20178;-74
2022/04/22 11:38:23;;;;;;;8.80;7.60;;;18.70;97.10;;;;;;5055628;28;20186;-75
2022/04/22 11:40:51;;;;;;;8.30;7.33;;;18.70;97.90;;;;;;5037439;28;20197;-75
2022/04/22 11:43:21;;;;;;;8.07;7.23;;;18.60;97.70;;;;;;5055197;28;20177;-75
2022/04/22 11:45:51;;;;;;;9.53;7.80;;;18.30;96.10;;;;;;5021432;28;20197;-75
2022/04/22 11:48:21;;;;;;;10.97;7.63;;;18.60;98.30;;;;;;5037244;28;20219;-75
2022/04/22 11:50:47;;;;;;;8.90;8.00;;;19.00;97.50;;;;;;5020595;28;20198;-75
2022/04/22 11:53:22;;;;;;;6.90;6.20;;;19.20;95.50;;;;;;5004502;28;20184;-75
2022/04/22 11:55:48;;;;;;;7.90;6.87;;;19.10;97.40;;;;;;5005761;28;20173;-75
2022/04/22 11:58:27;;;;;;;7.80;7.00;;;19.50;97.00;;;;;;5020300;28;20188;-75
2022/04/22 12:06:23;;;;;;;8.00;7.27;;;19.20;95.50;;;;;;5039445;28;20244;-75
2022/04/22 12:09:01;;;;;;;7.00;6.40;;;19.20;96.20;;;;;;5020476;28;20178;-75
2022/04/22 12:11:43;;;;;;;7.00;6.30;;;19.40;96.80;;;;;;5036765;28;20191;-75
2022/04/22 12:14:22;;;;;;;7.47;6.70;;;19.30;96.30;;;;;;5036513;28;20198;-75
2022/04/22 12:16:58;;;;;;;8.07;7.27;;;18.90;97.10;;;;;;5036560;28;20200;-75
2022/04/22 12:19:25;;;;;;;8.43;7.60;;;19.10;95.70;;;;;;5036680;28;20166;-75
2022/04/22 12:21:51;;;;;;;9.80;8.10;;;18.70;96.30;;;;;;5020257;28;20225;-75
2022/04/22 12:24:17;;;;;;;9.07;8.07;;;17.90;97.90;;;;;;5003472;28;20205;-75
2022/04/22 12:26:44;;;;;;;8.67;7.77;;;18.00;99.00;;;;;;5020133;28;20660;-75
2022/04/22 12:29:18;;;;;;;9.13;7.70;;;18.40;98.40;;;;;;5020494;28;20177;-75
2022/04/22 12:31:45;;;;;;;9.23;8.07;;;18.20;98.30;;;;;;5036259;28;20197;-75
2022/04/22 12:34:13;;;;;;;9.10;8.10;;;18.30;99.10;;;;;;5020215;28;20178;-75
2022/04/22 12:36:53;;;;;;;9.27;8.27;;;18.60;98.10;;;;;;5036236;28;20174;-75
2022/04/22 12:39:34;;;;;;;9.10;8.13;;;19.10;98.30;;;;;;5053969;28;20200;-75
2022/04/22 12:42:00;;;;;;;10.40;7.83;;;19.50;97.80;;;;;;5036107;28;20193;-75
2022/04/22 12:44:26;;;;;;;10.23;8.77;;;19.60;97.10;;;;;;5019897;28;20178;-75
2022/04/22 12:52:43;;;;;;;10.00;8.37;;;19.40;96.20;;;;;;5038991;28;20639;-74
2022/04/22 12:55:09;;;;;;;8.20;7.37;;;19.20;96.60;;;;;;5053733;28;20199;-74
2022/04/22 12:57:39;;;;;;;8.37;7.23;;;19.50;96.20;;;;;;5019617;28;20185;-74
2022/04/22 13:00:18;;;;;;;7.23;6.53;;;19.20;94.60;;;;;;5003973;28;20231;-75
2022/04/22 13:02:44;;;;;;;8.10;7.30;;;19.00;96.50;;;;;;5036420;28;20169;-76
2022/04/22 13:05:22;;;;;;;8.37;7.07;;;19.20;95.80;;;;;;5035578;28;20594;-76
2022/04/22 13:07:51;;;;;;;7.80;6.90;;;19.70;95.40;;;;;;5019292;28;20177;-75
2022/04/22 19:04:54;;;;;;;6.80;5.80;;;12.60;99.90;;;;;;5029564;28;20210;-74
2022/04/22 19:07:20;;;;;;;6.60;6.00;;;12.70;99.90;;;;;;4998554;28;20530;-74
2022/04/22 19:09:45;;;;;;;6.10;5.50;;;12.60;99.90;;;;;;4981903;28;20574;-74
2022/04/22 19:12:11;;;;;;;6.57;5.70;;;12.40;99.90;;;;;;5014082;28;20250;-74
2022/04/22 19:14:37;;;;;;;6.40;5.50;;;12.40;99.90;;;;;;5001881;28;20202;-74
2022/04/22 19:17:02;;;;;;;6.00;5.40;;;12.30;99.90;;;;;;5002064;28;20186;-74
2022/04/22 19:19:28;;;;;;;7.53;6.30;;;12.30;99.90;;;;;;5017788;28;20266;-74
2022/04/22 19:21:56;;;;;;;5.63;5.03;;;12.40;99.90;;;;;;4985006;28;20190;-74
2022/04/22 19:24:22;;;;;;;7.00;6.10;;;12.40;99.90;;;;;;5018112;28;20171;-74
2022/04/22 19:26:48;;;;;;;7.43;5.90;;;12.40;99.90;;;;;;4985382;28;20254;-74
2022/04/22 19:29:14;;;;;;;6.43;5.83;;;12.40;99.90;;;;;;5017976;28;20204;-74
2022/04/22 19:31:40;;;;;;;6.10;5.50;;;12.30;99.90;;;;;;4985400;28;20234;-74
2022/04/22 19:34:06;;;;;;;6.40;5.80;;;12.30;99.90;;;;;;5017913;28;20174;-74
2022/04/22 19:42:01;;;;;;;6.93;6.10;;;12.10;99.90;;;;;;5035287;28;20209;-76
2022/04/22 19:44:26;;;;;;;7.87;6.40;;;12.20;99.90;;;;;;5017812;28;20170;-76
2022/04/22 19:46:52;;;;;;;6.77;6.00;;;12.00;99.90;;;;;;4985198;28;20687;-76
2022/04/22 19:49:18;;;;;;;7.27;6.40;;;12.10;99.90;;;;;;5017512;28;20171;-76
2022/04/22 19:51:43;;;;;;;6.53;5.83;;;12.00;99.90;;;;;;5000928;28;20205;-76
2022/04/22 19:54:10;;;;;;;7.13;6.17;;;11.90;99.90;;;;;;4984680;28;20179;-76